Time;durP1;ratioP1;P1;durP2;ratioP2;P2;SDS_P1;SDS_P2;PMS_P1;PMS_P2;Temp;Humidity;BMP_temperature;BMP_pressure;BME280_temperature;BME280_humidity;BME280_pressure;Samples;Min_cycle;Max_cycle;Signal;HPM_P1;HPM_P2
2021/04/21 14:02:07;;;;;;;4.03;2.00;;;;;;;17.59;39.04;95676.03;5089239;27;21309;-64
2021/04/21 14:04:34;;;;;;;4.87;3.17;;;;;;;17.25;39.34;95682.53;5085820;28;20195;-63
2021/04/21 14:07:01;;;;;;;9.70;5.90;;;;;;;17.36;39.28;95672.34;5086954;28;20195;-63
2021/04/21 14:09:28;;;;;;;5.60;3.60;;;;;;;17.62;42.06;95672.75;5085706;28;20204;-64
2021/04/21 14:11:55;;;;;;;5.00;3.22;;;;;;;17.43;41.05;95675.19;5086833;28;20192;-64
2021/04/21 14:14:22;;;;;;;12.20;6.57;;;;;;;17.08;39.61;95673.06;5087267;28;20200;-63
2021/04/21 14:16:49;;;;;;;11.30;6.30;;;;;;;16.74;40.98;95673.47;5087005;28;20217;-64
2021/04/21 14:19:17;;;;;;;2.47;1.93;;;;;;;16.88;41.25;95665.28;5087169;28;20188;-63
2021/04/21 14:21:45;;;;;;;4.43;2.93;;;;;;;17.01;42.21;95672.06;5086870;28;20285;-63
2021/04/21 14:24:12;;;;;;;9.97;5.23;;;;;;;17.01;44.10;95666.81;5087230;28;20682;-63
2021/04/21 14:26:39;;;;;;;9.40;4.00;;;;;;;17.26;45.96;95672.78;5087138;28;20283;-63
2021/04/21 14:29:07;;;;;;;5.83;3.17;;;;;;;16.94;42.52;95669.97;5087201;28;20573;-63
2021/04/21 14:31:36;;;;;;;5.67;3.40;;;;;;;16.72;47.45;95675.66;5087030;28;20207;-63
2021/04/21 14:34:03;;;;;;;119.83;50.47;;;;;;;16.47;43.46;95684.56;5086942;28;20577;-64
2021/04/21 14:36:32;;;;;;;13.77;7.03;;;;;;;16.16;43.85;95683.19;5087051;28;20581;-64
2021/04/21 14:38:59;;;;;;;6.07;3.57;;;;;;;15.70;47.49;95678.19;5086760;28;20249;-65
2021/04/21 14:41:26;;;;;;;7.67;4.27;;;;;;;15.52;46.30;95687.28;5086827;28;20235;-63
2021/04/21 14:43:56;;;;;;;5.60;3.00;;;;;;;15.88;47.11;95684.84;5086752;28;20188;-63
2021/04/21 14:46:23;;;;;;;7.60;3.40;;;;;;;16.29;42.59;95676.88;5086869;28;20222;-64
2021/04/21 14:48:50;;;;;;;4.83;3.00;;;;;;;16.25;40.98;95680.47;5086869;28;20223;-62
2021/04/21 14:51:17;;;;;;;7.93;4.77;;;;;;;16.71;42.39;95680.16;5086712;28;20269;-64
2021/04/21 14:53:45;;;;;;;9.83;5.97;;;;;;;17.05;42.06;95684.19;5086926;28;20204;-64
2021/04/21 14:56:14;;;;;;;6.87;4.30;;;;;;;17.13;41.53;95685.97;5086710;28;20229;-64
2021/04/21 14:58:41;;;;;;;5.80;3.30;;;;;;;16.89;39.50;95683.31;5086488;28;20279;-64
2021/04/21 15:01:08;;;;;;;4.33;2.40;;;;;;;16.81;39.86;95676.31;5086215;28;20246;-64
2021/04/21 15:03:35;;;;;;;7.00;4.00;;;;;;;16.97;42.22;95682.47;5086585;28;20222;-64
2021/04/21 15:06:02;;;;;;;4.07;2.37;;;;;;;16.83;39.80;95689.91;5086632;28;20203;-64
2021/04/21 15:08:30;;;;;;;3.00;2.40;;;;;;;16.79;41.69;95687.16;5086190;28;20188;-64
2021/04/21 15:10:58;;;;;;;10.33;5.97;;;;;;;16.89;41.52;95695.69;5086290;28;20207;-64
2021/04/21 15:13:26;;;;;;;2.93;2.43;;;;;;;16.75;41.04;95688.13;5073401;28;20289;-62
2021/04/21 15:15:53;;;;;;;6.17;4.20;;;;;;;16.64;44.87;95684.41;5072546;28;20224;-64
2021/04/21 15:18:20;;;;;;;8.23;3.70;;;;;;;16.06;47.32;95690.69;5072643;28;20226;-64
2021/04/21 15:20:48;;;;;;;5.53;3.43;;;;;;;15.73;49.73;95688.06;5072602;28;20224;-61
2021/04/21 15:23:16;;;;;;;3.10;2.40;;;;;;;15.69;51.43;95689.78;5072628;28;20283;-64
2021/04/21 15:25:44;;;;;;;12.67;7.30;;;;;;;15.97;50.53;95692.63;5072549;28;20200;-63
2021/04/21 15:28:11;;;;;;;8.93;6.00;;;;;;;16.18;48.58;95694.13;5072749;28;20236;-64
2021/04/21 15:30:38;;;;;;;9.80;6.50;;;;;;;15.80;48.36;95701.38;5072649;28;20273;-62
2021/04/21 15:33:06;;;;;;;8.47;5.57;;;;;;;15.83;48.80;95695.53;5072485;28;20201;-64
2021/04/21 15:35:33;;;;;;;4.73;3.10;;;;;;;15.62;50.21;95702.63;5072444;28;20193;-63
2021/04/21 15:38:01;;;;;;;4.70;3.50;;;;;;;15.64;51.11;95695.22;5072211;28;20231;-63
2021/04/21 15:40:29;;;;;;;6.63;4.27;;;;;;;15.59;48.97;95701.38;5072337;28;20230;-63
2021/04/21 15:42:56;;;;;;;6.00;3.90;;;;;;;15.76;48.12;95695.25;5072319;28;20578;-64
2021/04/21 15:45:30;;;;;;;6.40;4.37;;;;;;;16.13;47.88;95694.34;5072559;28;20204;-64
2021/04/21 15:47:57;;;;;;;14.73;6.13;;;;;;;16.21;46.84;95697.94;5072992;28;20204;-64
2021/04/21 15:50:24;;;;;;;10.67;4.83;;;;;;;16.06;47.02;95701.94;5072070;28;20199;-64
2021/04/21 15:52:51;;;;;;;4.63;3.13;;;;;;;16.13;46.58;95704.81;5072019;28;20200;-64
2021/04/21 15:55:20;;;;;;;7.10;3.67;;;;;;;16.30;46.56;95701.25;5072161;28;20262;-63
2021/04/21 15:57:49;;;;;;;6.40;4.23;;;;;;;16.19;46.15;95700.88;5072310;28;20192;-63
2021/04/21 16:00:17;;;;;;;9.57;4.43;;;;;;;15.98;45.82;95708.03;5072122;28;20239;-64
2021/04/21 16:02:52;;;;;;;23.13;7.90;;;;;;;15.68;47.35;95711.81;5071956;28;20205;-62
2021/04/21 16:05:21;;;;;;;22.60;8.47;;;;;;;15.37;48.65;95712.94;5071698;28;20198;-64
2021/04/21 16:07:49;;;;;;;28.43;9.57;;;;;;;15.18;50.49;95709.19;5071818;28;20273;-64
2021/04/21 16:10:18;;;;;;;29.70;10.10;;;;;;;14.90;52.63;95708.84;5071625;28;20248;-64
2021/04/21 16:12:46;;;;;;;18.50;7.23;;;;;;;14.67;53.87;95707.56;5071922;28;20609;-64
2021/04/21 16:15:14;;;;;;;29.17;10.30;;;;;;;14.93;53.65;95713.47;5071572;28;20279;-64
2021/04/21 16:17:41;;;;;;;29.03;9.40;;;;;;;15.08;53.89;95718.19;5071271;28;20196;-64
2021/04/21 16:20:11;;;;;;;27.60;11.17;;;;;;;14.71;55.29;95717.09;5071488;28;20208;-63
2021/04/21 16:22:39;;;;;;;33.90;12.63;;;;;;;14.67;54.16;95720.66;5071355;28;20287;-64
2021/04/21 16:25:07;;;;;;;25.17;10.13;;;;;;;15.07;53.77;95714.78;5070030;28;20193;-63
2021/04/21 16:27:34;;;;;;;21.27;9.00;;;;;;;15.97;50.81;95716.22;5071294;28;20238;-64
2021/04/21 16:30:01;;;;;;;10.30;5.20;;;;;;;16.76;48.11;95713.28;5071063;28;20586;-64
2021/04/21 16:32:28;;;;;;;8.53;4.63;;;;;;;17.58;46.53;95717.28;5071267;28;20208;-64
2021/04/21 16:34:54;;;;;;;6.88;2.83;;;;;;;18.21;44.56;95724.69;5070992;28;20494;-64
2021/04/21 16:37:22;;;;;;;3.85;2.90;;;;;;;18.34;44.04;95726.16;5071135;28;20765;-63
2021/04/21 16:39:49;;;;;;;9.20;4.00;;;;;;;18.65;41.69;95728.88;5070874;28;20624;-64
2021/04/21 16:42:16;;;;;;;8.43;5.85;;;;;;;18.40;40.07;95730.84;5070724;28;20728;-64
2021/04/21 16:44:43;;;;;;;6.28;3.80;;;;;;;18.13;39.42;95731.63;5070631;28;20259;-63
2021/04/21 16:47:10;;;;;;;4.28;3.60;;;;;;;17.84;41.10;95735.31;5071053;28;20192;-63
2021/04/21 16:49:37;;;;;;;14.20;5.70;;;;;;;17.14;43.45;95740.00;5070628;28;20189;-62
2021/04/21 16:52:04;;;;;;;21.07;12.63;;;;;;;16.66;44.43;95739.94;5070780;28;20193;-64
2021/04/21 16:54:32;;;;;;;42.53;23.43;;;;;;;16.14;45.71;95740.41;5070635;28;20279;-63
2021/04/21 16:57:00;;;;;;;11.27;6.60;;;;;;;15.66;47.35;95756.69;5070653;28;20200;-64
2021/04/21 16:59:28;;;;;;;6.17;3.97;;;;;;;15.21;47.87;95761.69;5070597;28;20295;-64
2021/04/21 17:01:55;;;;;;;8.37;3.23;;;;;;;14.95;49.27;95758.41;5070253;28;20273;-64
2021/04/21 17:04:22;;;;;;;3.73;3.00;;;;;;;14.81;48.88;95776.16;5070711;28;20197;-63
2021/04/21 17:06:49;;;;;;;4.10;2.90;;;;;;;14.55;48.90;95763.13;5070690;28;20283;-63
2021/04/21 17:09:16;;;;;;;2.93;2.63;;;;;;;14.33;49.87;95769.31;5070290;28;20605;-62
2021/04/21 17:11:45;;;;;;;4.50;3.60;;;;;;;14.08;51.15;95778.72;5070224;28;20192;-63
2021/04/21 17:14:13;;;;;;;5.57;3.80;;;;;;;13.83;51.49;95784.69;5070280;28;20512;-64
2021/04/21 17:16:41;;;;;;;5.00;3.70;;;;;;;13.47;52.09;95790.16;5070001;28;20200;-62
2021/04/21 17:19:09;;;;;;;6.30;4.40;;;;;;;13.34;52.15;95780.59;5070173;28;20690;-63
2021/04/21 17:21:36;;;;;;;7.10;4.67;;;;;;;13.20;52.19;95788.53;5070116;28;20748;-63
2021/04/21 17:24:05;;;;;;;6.73;5.10;;;;;;;13.06;52.96;95794.91;5070274;28;20277;-63
2021/04/21 17:26:34;;;;;;;7.13;4.63;;;;;;;12.86;53.65;95796.97;5070214;28;20299;-63
2021/04/21 17:29:03;;;;;;;8.80;4.87;;;;;;;12.88;54.54;95804.50;5069956;28;20204;-62
2021/04/21 17:31:30;;;;;;;10.63;5.53;;;;;;;12.85;55.06;95805.09;5070062;28;20689;-62
2021/04/21 17:33:57;;;;;;;8.70;5.13;;;;;;;12.75;55.93;95813.91;5069922;28;20650;-62
2021/04/21 17:36:23;;;;;;;7.50;4.83;;;;;;;12.71;56.00;95814.81;5069793;28;20195;-63
2021/04/21 17:38:53;;;;;;;6.00;4.70;;;;;;;12.68;56.12;95815.44;5070126;28;20241;-62
2021/04/21 17:41:21;;;;;;;7.47;4.43;;;;;;;12.54;57.06;95820.72;5069847;28;20228;-63
2021/04/21 17:43:49;;;;;;;6.40;3.70;;;;;;;12.52;57.73;95820.22;5070117;28;20245;-61
2021/04/21 17:46:17;;;;;;;7.17;3.80;;;;;;;12.47;58.70;95831.56;5069927;28;20192;-63
2021/04/21 17:48:45;;;;;;;3.60;3.30;;;;;;;12.45;58.26;95833.66;5069829;28;20192;-62
2021/04/21 17:51:14;;;;;;;5.40;2.93;;;;;;;12.36;60.15;95839.88;5070273;28;20205;-61
2021/04/21 17:53:41;;;;;;;5.93;3.73;;;;;;;12.31;60.00;95837.41;5070170;28;20295;-63
2021/04/21 17:56:10;;;;;;;4.97;3.93;;;;;;;12.27;60.12;95846.88;5069751;28;20666;-62
2021/04/21 17:58:37;;;;;;;5.90;4.27;;;;;;;12.13;61.10;95846.16;5069734;28;20196;-63
2021/04/21 18:01:05;;;;;;;5.40;4.43;;;;;;;12.10;62.49;95854.56;5069784;28;20589;-62
2021/04/21 18:03:35;;;;;;;6.47;4.30;;;;;;;11.96;63.62;95865.75;5069806;28;20279;-62
2021/04/21 18:06:03;;;;;;;4.23;3.33;;;;;;;11.93;65.28;95862.97;5069738;28;20197;-63
2021/04/21 18:08:30;;;;;;;5.87;4.30;;;;;;;11.75;65.44;95867.25;5069791;28;20196;-63
2021/04/21 18:10:57;;;;;;;5.30;4.13;;;;;;;11.61;66.63;95871.66;5069878;28;20235;-62
2021/04/21 18:13:24;;;;;;;7.87;5.63;;;;;;;11.51;66.68;95864.81;5069578;28;20274;-62
2021/04/21 18:15:53;;;;;;;8.97;5.33;;;;;;;11.51;67.12;95870.00;5069504;28;20188;-62
2021/04/21 18:18:21;;;;;;;9.33;6.10;;;;;;;11.25;68.41;95878.59;5069547;28;20188;-63
2021/04/21 18:20:49;;;;;;;6.97;4.37;;;;;;;11.17;68.16;95885.97;5069829;28;20232;-62
2021/04/21 18:23:16;;;;;;;6.33;5.03;;;;;;;10.98;69.05;95887.88;5069692;28;20192;-63
2021/04/21 18:25:43;;;;;;;12.53;7.50;;;;;;;10.94;68.69;95889.50;5069425;28;20288;-62
2021/04/21 18:28:11;;;;;;;10.80;7.40;;;;;;;10.85;68.70;95885.25;5069590;28;20200;-62
2021/04/21 18:30:40;;;;;;;10.47;7.50;;;;;;;10.85;69.02;95886.03;5069507;28;20219;-62
2021/04/21 18:33:09;;;;;;;15.50;9.73;;;;;;;10.81;68.81;95895.41;5069372;28;20192;-60
2021/04/21 18:35:36;;;;;;;17.17;11.03;;;;;;;10.87;67.98;95889.09;5069527;28;20201;-62
2021/04/21 18:38:05;;;;;;;20.23;11.83;;;;;;;10.89;67.98;95897.38;5069720;28;20235;-62
2021/04/21 18:40:31;;;;;;;22.67;15.17;;;;;;;10.83;67.95;95892.53;5069392;28;20603;-62
2021/04/21 18:42:58;;;;;;;26.80;17.63;;;;;;;10.82;68.15;95904.00;5069196;28;20222;-63
2021/04/21 18:45:25;;;;;;;29.67;18.53;;;;;;;10.79;68.56;95900.16;5069397;28;20291;-62
2021/04/21 18:47:53;;;;;;;27.13;17.67;;;;;;;10.84;70.40;95902.66;5071758;28;20196;-63
2021/04/21 18:50:21;;;;;;;29.80;19.00;;;;;;;10.76;71.62;95905.91;5073127;28;20281;-62
2021/04/21 18:52:49;;;;;;;29.20;17.17;;;;;;;10.69;73.22;95908.09;5073193;28;20334;-63
2021/04/21 18:55:19;;;;;;;22.50;14.80;;;;;;;10.46;75.20;95914.91;5072798;28;20196;-63
2021/04/21 18:57:46;;;;;;;23.50;16.17;;;;;;;10.34;75.49;95910.16;5073015;28;20247;-61
2021/04/21 19:00:17;;;;;;;25.70;17.53;;;;;;;10.32;75.14;95912.25;5072377;28;20312;-61
2021/04/21 19:02:44;;;;;;;27.27;17.30;;;;;;;10.39;74.33;95916.34;5072921;28;20571;-63
2021/04/21 19:05:12;;;;;;;26.67;17.33;;;;;;;10.41;74.13;95922.78;5072963;28;20224;-62
2021/04/21 19:07:40;;;;;;;24.87;16.93;;;;;;;10.33;75.35;95928.63;5072946;28;20273;-61
2021/04/21 19:10:09;;;;;;;28.87;18.83;;;;;;;10.31;75.25;95930.75;5072838;28;20311;-62
2021/04/21 19:12:37;;;;;;;23.87;19.27;;;;;;;10.39;75.84;95935.28;5072457;28;20731;-61
2021/04/21 19:15:05;;;;;;;18.93;14.33;;;;;;;10.46;75.66;95933.09;5072823;28;20663;-61
2021/04/21 19:17:32;;;;;;;19.80;13.73;;;;;;;10.42;76.88;95939.13;5072904;28;20253;-62
2021/04/21 19:19:59;;;;;;;25.20;14.33;;;;;;;10.40;77.28;95936.06;5072581;28;20203;-63
2021/04/21 19:22:26;;;;;;;29.53;15.90;;;;;;;10.45;77.15;95936.00;5072203;28;20714;-63
2021/04/21 19:24:55;;;;;;;21.33;13.50;;;;;;;10.36;78.43;95935.88;5072394;28;20199;-61
2021/04/21 19:27:23;;;;;;;19.03;13.20;;;;;;;10.25;79.74;95940.41;5072335;28;20192;-62
2021/04/21 19:29:51;;;;;;;19.77;13.10;;;;;;;10.20;79.63;95950.88;5072524;28;20192;-62
2021/04/21 19:32:19;;;;;;;32.40;14.73;;;;;;;10.19;79.51;95951.91;5072540;28;20197;-61
2021/04/21 19:34:47;;;;;;;29.93;13.97;;;;;;;10.23;79.08;95946.94;5072277;28;20208;-62
2021/04/21 19:37:14;;;;;;;23.00;12.50;;;;;;;10.21;78.52;95951.66;5072011;28;20634;-62
2021/04/21 19:39:43;;;;;;;16.47;9.83;;;;;;;10.30;79.11;95947.38;5072092;28;20678;-62
2021/04/21 19:42:12;;;;;;;16.23;10.30;;;;;;;10.29;78.86;95956.97;5072228;28;20261;-63
2021/04/21 19:44:45;;;;;;;19.07;11.20;;;;;;;10.30;78.72;95950.75;5072137;28;20200;-62
2021/04/21 19:47:13;;;;;;;22.57;10.87;;;;;;;10.38;78.59;95958.94;5070853;28;20200;-62
2021/04/21 19:49:41;;;;;;;25.00;11.40;;;;;;;10.36;78.44;95962.59;5072060;28;20188;-61
2021/04/21 19:52:08;;;;;;;22.20;10.20;;;;;;;10.40;78.54;95962.81;5072151;28;20224;-63
2021/04/21 19:54:35;;;;;;;15.73;8.77;;;;;;;10.29;79.44;95956.97;5072152;28;20274;-61
2021/04/21 19:57:04;;;;;;;15.70;10.20;;;;;;;10.23;80.47;95965.09;5072065;28;20204;-62
2021/04/21 19:59:35;;;;;;;17.73;9.63;;;;;;;10.32;80.31;95960.84;5071854;28;20203;-62
2021/04/21 20:02:02;;;;;;;18.63;10.03;;;;;;;10.26;80.10;95964.56;5071444;28;20247;-62
2021/04/21 20:04:30;;;;;;;31.43;13.90;;;;;;;10.25;80.00;95958.59;5071761;28;20200;-62
2021/04/21 20:06:57;;;;;;;28.13;13.80;;;;;;;10.37;79.13;95973.75;5072015;28;20238;-62
2021/04/21 20:09:25;;;;;;;25.57;14.40;;;;;;;10.49;77.87;95965.56;5071832;28;20254;-63
2021/04/21 20:11:51;;;;;;;21.50;13.73;;;;;;;10.44;77.47;95970.81;5071753;28;20204;-62
2021/04/21 20:14:18;;;;;;;69.80;30.03;;;;;;;10.34;77.98;95969.91;5071627;28;20279;-63
2021/04/21 20:16:45;;;;;;;83.53;29.00;;;;;;;10.36;78.00;95967.78;5071513;28;20196;-61
2021/04/21 20:19:12;;;;;;;46.57;18.33;;;;;;;10.36;77.28;95975.59;5071482;28;20298;-63
2021/04/21 20:21:40;;;;;;;27.43;12.17;;;;;;;10.37;77.21;95986.75;5071345;28;20263;-60
2021/04/21 20:24:08;;;;;;;13.67;8.60;;;;;;;10.44;77.28;95976.03;5071208;28;20199;-61
2021/04/21 20:26:35;;;;;;;10.17;7.20;;;;;;;10.36;78.25;95977.44;5071295;28;20279;-62
2021/04/21 20:29:02;;;;;;;20.90;11.37;;;;;;;10.16;77.32;95978.44;5071248;28;20544;-63
2021/04/21 20:31:29;;;;;;;16.07;10.33;;;;;;;10.17;76.12;95976.59;5071200;28;20226;-62
2021/04/21 20:33:56;;;;;;;15.20;10.00;;;;;;;10.17;76.30;95979.19;5071224;28;20311;-61
2021/04/21 20:36:23;;;;;;;15.13;10.00;;;;;;;10.19;75.98;95974.50;5070990;28;20203;-62
2021/04/21 20:38:50;;;;;;;27.07;15.07;;;;;;;10.12;74.63;95974.81;5071307;28;20631;-62
2021/04/21 20:41:17;;;;;;;18.67;12.60;;;;;;;10.24;74.07;95975.22;5071091;28;20228;-62
2021/04/21 20:43:44;;;;;;;18.63;11.57;;;;;;;10.20;74.81;95976.84;5070973;28;20714;-61
2021/04/21 20:46:11;;;;;;;17.90;10.80;;;;;;;10.21;74.18;95975.78;5070903;28;20743;-62
2021/04/21 20:48:38;;;;;;;17.03;10.60;;;;;;;10.28;74.34;95981.41;5070822;28;20271;-62
2021/04/21 20:51:05;;;;;;;19.87;11.57;;;;;;;10.29;74.10;95982.97;5070744;28;20197;-62
2021/04/21 20:53:31;;;;;;;21.90;12.30;;;;;;;10.22;73.78;95986.94;5071326;28;20584;-62
2021/04/21 20:55:59;;;;;;;28.77;15.77;;;;;;;10.29;73.65;95984.78;5070651;28;20241;-63
2021/04/21 20:58:26;;;;;;;29.30;17.20;;;;;;;10.30;72.70;95987.09;5070644;28;20196;-61
2021/04/21 21:00:53;;;;;;;35.67;20.00;;;;;;;10.28;73.28;95986.59;5070250;28;20236;-63
2021/04/21 21:03:19;;;;;;;68.10;33.37;;;;;;;10.17;74.11;95990.38;5071194;28;20223;-62
2021/04/21 21:05:47;;;;;;;78.47;36.53;;;;;;;10.17;75.26;95992.19;5070618;28;20207;-61
2021/04/21 21:08:13;;;;;;;62.80;27.23;;;;;;;10.06;76.27;95988.91;5070597;28;20585;-62
2021/04/21 21:10:41;;;;;;;53.53;25.57;;;;;;;9.99;76.74;95985.88;5069900;28;20224;-63
2021/04/21 21:13:09;;;;;;;59.77;28.07;;;;;;;9.98;76.35;95989.53;5070508;28;20623;-63
2021/04/21 21:15:37;;;;;;;63.93;29.20;;;;;;;9.88;77.26;95987.03;5070323;28;20662;-63
2021/04/21 21:18:05;;;;;;;76.27;32.53;;;;;;;9.85;77.39;95985.78;5070833;28;20200;-63
2021/04/21 21:20:33;;;;;;;42.53;21.33;;;;;;;9.71;79.47;95994.50;5070215;28;20508;-62
2021/04/21 21:23:00;;;;;;;36.80;19.33;;;;;;;9.48;81.61;95994.16;5070140;28;20693;-64
2021/04/21 21:25:27;;;;;;;32.13;17.13;;;;;;;9.20;84.39;95991.56;5070238;28;20279;-61
2021/04/21 21:27:54;;;;;;;29.97;17.60;;;;;;;9.07;86.06;95987.75;5070098;28;20193;-62
2021/04/21 21:30:26;;;;;;;28.63;18.20;;;;;;;9.04;86.31;95996.09;5070117;28;20204;-66
2021/04/21 21:32:52;;;;;;;32.57;17.70;;;;;;;9.06;87.05;95991.44;5070422;28;20211;-63
2021/04/21 21:35:19;;;;;;;206.00;55.20;;;;;;;9.06;86.76;95996.59;5069872;28;20333;-62
2021/04/21 21:37:46;;;;;;;113.83;34.30;;;;;;;8.86;87.15;95992.34;5070349;28;20188;-63
2021/04/21 21:40:16;;;;;;;34.83;18.27;;;;;;;8.88;87.52;95999.81;5070261;28;20206;-62
